createdAt,value
2023-11-21T00:02:23.763Z,7.06
2023-11-21T00:04:50.806Z,7.40
2023-11-21T00:07:18.149Z,7.06
2023-11-21T00:09:45.034Z,6.46
2023-11-21T00:12:11.882Z,6.42
2023-11-21T00:14:39.559Z,6.05
2023-11-21T00:17:07.396Z,5.93
2023-11-21T00:19:37.265Z,6.29
2023-11-21T00:22:04.148Z,6.12
2023-11-21T00:24:30.914Z,6.13
2023-11-21T00:26:57.750Z,5.89
2023-11-21T00:29:24.475Z,6.09
2023-11-21T00:31:51.532Z,6.63
2023-11-21T00:34:18.515Z,6.58
2023-11-21T00:36:45.322Z,6.29
2023-11-21T00:39:13.272Z,6.02
2023-11-21T00:41:40.060Z,5.96
2023-11-21T00:44:08.024Z,6.06
2023-11-21T00:46:35.180Z,6.78
2023-11-21T00:49:02.193Z,6.23
2023-11-21T00:51:28.994Z,6.27
2023-11-21T00:53:55.829Z,6.05
2023-11-21T00:56:22.960Z,6.06
2023-11-21T00:58:53.567Z,6.14
2023-11-21T01:01:21.286Z,6.09
2023-11-21T01:03:48.262Z,6.23
2023-11-21T01:06:16.431Z,6.44
2023-11-21T01:08:44.978Z,6.26
2023-11-21T01:11:13.649Z,6.75
2023-11-21T01:13:41.830Z,6.81
2023-11-21T01:16:09.358Z,6.00
2023-11-21T01:18:36.750Z,5.79
2023-11-21T01:21:03.689Z,6.38
2023-11-21T01:23:31.622Z,6.42
2023-11-21T01:25:58.678Z,5.89
2023-11-21T01:28:25.509Z,5.68
2023-11-21T01:30:52.569Z,5.67
2023-11-21T01:33:19.804Z,5.61
2023-11-21T01:35:47.618Z,5.70
2023-11-21T01:38:16.418Z,5.77
2023-11-21T01:40:43.298Z,5.75
2023-11-21T01:43:10.282Z,5.94
2023-11-21T01:45:37.301Z,5.71
2023-11-21T01:48:05.328Z,5.84
2023-11-21T01:50:32.506Z,6.05
2023-11-21T01:52:59.505Z,5.65
2023-11-21T01:55:29.181Z,6.01
2023-11-21T01:57:58.664Z,5.83
2023-11-21T02:00:26.993Z,5.53
2023-11-21T02:02:53.921Z,5.67
2023-11-21T02:05:22.937Z,5.45
2023-11-21T02:07:49.955Z,5.66
2023-11-21T02:10:18.280Z,5.65
2023-11-21T02:12:45.931Z,5.76
2023-11-21T02:15:28.101Z,5.66
2023-11-21T02:17:55.504Z,5.62
2023-11-21T02:20:26.003Z,5.28
2023-11-21T02:23:03.926Z,5.57
2023-11-21T02:25:33.026Z,5.16
2023-11-21T02:28:02.482Z,5.67
2023-11-21T02:30:29.741Z,5.31
2023-11-21T02:32:58.521Z,5.81
2023-11-21T02:35:27.185Z,5.05
2023-11-21T02:37:54.510Z,5.44
2023-11-21T02:40:22.218Z,5.43
2023-11-21T02:42:49.739Z,6.46
2023-11-21T02:45:19.900Z,5.45
2023-11-21T02:47:46.828Z,5.26
2023-11-21T02:50:14.239Z,5.28
2023-11-21T02:52:44.013Z,5.35
2023-11-21T02:55:11.014Z,5.22
2023-11-21T02:57:37.917Z,5.12
2023-11-21T03:00:08.611Z,5.21
2023-11-21T03:02:41.143Z,5.40
2023-11-21T03:05:11.975Z,5.19
2023-11-21T03:07:39.379Z,5.32
2023-11-21T03:10:07.716Z,5.27
2023-11-21T03:12:34.587Z,5.44
2023-11-21T03:15:03.025Z,5.22
2023-11-21T03:17:30.430Z,5.20
2023-11-21T03:19:58.469Z,5.76
2023-11-21T03:22:25.286Z,5.48
2023-11-21T03:24:52.218Z,5.02
2023-11-21T03:27:19.107Z,4.95
2023-11-21T03:29:47.853Z,4.99
2023-11-21T03:32:14.688Z,5.13
2023-11-21T03:35:08.244Z,5.42
2023-11-21T03:37:35.318Z,4.66
2023-11-21T03:40:04.799Z,5.39
2023-11-21T03:42:31.637Z,5.19
2023-11-21T03:44:58.328Z,4.96
2023-11-21T03:47:25.716Z,4.74
2023-11-21T03:49:52.612Z,4.69
2023-11-21T03:52:19.496Z,5.21
2023-11-21T03:54:46.405Z,5.14
2023-11-21T03:57:13.576Z,4.79
2023-11-21T03:59:44.347Z,4.69
2023-11-21T04:02:11.331Z,4.47
2023-11-21T04:04:38.601Z,4.36
2023-11-21T04:07:06.209Z,4.63
2023-11-21T04:09:33.210Z,5.02
2023-11-21T04:12:00.343Z,5.43
2023-11-21T04:14:28.502Z,5.03
2023-11-21T04:16:55.673Z,4.39
2023-11-21T04:19:22.769Z,4.81
2023-11-21T04:21:49.825Z,5.34
2023-11-21T04:24:17.146Z,4.97
2023-11-21T04:26:45.034Z,4.72
2023-11-21T04:29:11.939Z,5.26
2023-11-21T04:31:39.211Z,5.61
2023-11-21T04:34:06.580Z,5.15
2023-11-21T04:36:33.574Z,5.55
2023-11-21T04:39:00.385Z,4.87
2023-11-21T04:41:27.089Z,4.84
2023-11-21T04:43:53.924Z,4.70
2023-11-21T04:46:20.939Z,4.77
2023-11-21T04:48:48.217Z,4.79
2023-11-21T04:51:15.444Z,4.71
2023-11-21T04:53:42.522Z,4.40
2023-11-21T04:56:27.766Z,4.58
2023-11-21T04:58:55.908Z,4.50
2023-11-21T05:01:23.060Z,4.77
2023-11-21T05:03:50.295Z,4.47
2023-11-21T05:06:17.516Z,4.58
2023-11-21T05:08:44.569Z,4.17
2023-11-21T05:11:12.379Z,4.15
2023-11-21T05:13:40.302Z,4.17
2023-11-21T05:16:08.311Z,4.07
2023-11-21T05:18:35.811Z,4.12
2023-11-21T05:21:03.858Z,4.30
2023-11-21T05:23:30.744Z,4.50
2023-11-21T05:25:58.485Z,4.53
2023-11-21T05:28:25.255Z,4.88
2023-11-21T05:30:58.137Z,5.47
2023-11-21T05:33:30.850Z,5.02
2023-11-21T05:35:57.667Z,4.48
2023-11-21T05:38:24.467Z,4.78
2023-11-21T05:40:51.331Z,4.56
2023-11-21T05:43:19.169Z,4.67
2023-11-21T05:45:45.975Z,4.53
2023-11-21T05:48:13.583Z,5.01
2023-11-21T05:50:40.349Z,5.01
2023-11-21T05:53:07.142Z,5.01
2023-11-21T05:55:34.316Z,4.79
2023-11-21T05:58:01.269Z,4.95
2023-11-21T06:00:28.442Z,4.76
2023-11-21T06:02:56.578Z,5.15
2023-11-21T06:05:25.444Z,5.45
2023-11-21T06:08:00.552Z,5.54
2023-11-21T06:10:28.723Z,5.98
2023-11-21T06:13:01.491Z,5.44
2023-11-21T06:15:30.714Z,5.24
2023-11-21T06:17:57.600Z,5.14
2023-11-21T06:20:24.644Z,6.08
2023-11-21T06:22:53.000Z,6.07
2023-11-21T06:25:20.378Z,5.40
2023-11-21T06:27:49.451Z,5.73
2023-11-21T06:30:16.912Z,6.31
2023-11-21T06:32:48.050Z,6.31
2023-11-21T06:35:35.935Z,6.41
2023-11-21T06:38:04.397Z,6.87
2023-11-21T06:40:31.610Z,6.44
2023-11-21T06:43:02.798Z,5.93
2023-11-21T06:45:39.445Z,6.46
2023-11-21T06:48:16.156Z,6.03
2023-11-21T06:50:43.424Z,6.03
2023-11-21T06:53:20.342Z,7.48
2023-11-21T06:55:48.520Z,7.92
2023-11-21T06:58:30.489Z,7.31
2023-11-21T07:00:59.689Z,7.19
2023-11-21T07:03:27.873Z,7.58
2023-11-21T07:05:54.886Z,8.22
2023-11-21T07:08:21.953Z,7.68
2023-11-21T07:10:48.987Z,7.39
2023-11-21T07:13:15.874Z,7.64
2023-11-21T07:15:42.882Z,8.19
2023-11-21T07:18:09.909Z,8.50
2023-11-21T07:20:51.677Z,8.89
2023-11-21T07:23:18.628Z,8.72
2023-11-21T07:26:04.569Z,7.98
2023-11-21T07:39:05.443Z,9.21
2023-11-21T07:41:33.570Z,9.22
2023-11-21T07:44:00.667Z,8.46
2023-11-21T07:46:28.746Z,8.21
2023-11-21T07:48:56.521Z,8.33
2023-11-21T07:51:23.494Z,8.57
2023-11-21T07:53:52.425Z,8.73
2023-11-21T07:56:20.484Z,8.98
2023-11-21T07:58:47.377Z,8.55
2023-11-21T08:01:14.251Z,8.08
2023-11-21T08:03:41.171Z,8.40
2023-11-21T08:06:08.575Z,8.05
2023-11-21T08:08:38.027Z,9.26
2023-11-21T08:11:05.120Z,9.08
2023-11-21T08:13:32.088Z,8.55
2023-11-21T08:16:06.555Z,9.01
2023-11-21T08:18:33.873Z,9.43
2023-11-21T08:21:01.792Z,8.77
2023-11-21T08:23:29.681Z,8.26
2023-11-21T08:25:56.710Z,8.62
2023-11-21T08:28:24.774Z,8.62
2023-11-21T08:30:52.052Z,8.65
2023-11-21T08:33:19.192Z,8.09
2023-11-21T08:35:47.103Z,7.87
2023-11-21T08:38:14.559Z,8.03
2023-11-21T08:40:41.570Z,8.00
2023-11-21T08:43:09.369Z,7.96
2023-11-21T08:45:36.337Z,8.33
2023-11-21T08:48:03.623Z,8.19
2023-11-21T08:50:30.695Z,8.00
2023-11-21T08:52:57.885Z,8.01
2023-11-21T08:55:25.006Z,7.94
2023-11-21T08:57:52.257Z,8.38
2023-11-21T09:00:19.941Z,7.90
2023-11-21T09:02:47.070Z,8.23
2023-11-21T09:05:15.302Z,8.11
2023-11-21T09:07:43.740Z,8.09
2023-11-21T09:10:11.198Z,7.96
2023-11-21T09:12:39.460Z,8.54
2023-11-21T09:15:08.199Z,8.45
2023-11-21T09:17:36.018Z,8.22
2023-11-21T09:20:05.032Z,8.53
2023-11-21T09:22:32.990Z,9.13
2023-11-21T09:25:00.043Z,9.32
2023-11-21T09:27:29.526Z,8.69
2023-11-21T09:29:56.509Z,9.05
2023-11-21T09:32:23.509Z,9.36
2023-11-21T09:34:51.550Z,9.76
2023-11-21T09:37:18.631Z,10.89
2023-11-21T09:39:49.146Z,11.44
2023-11-21T09:42:23.655Z,9.88
2023-11-21T09:45:11.946Z,8.65
2023-11-21T09:47:40.657Z,8.52
2023-11-21T09:50:11.915Z,8.82
2023-11-21T09:53:07.755Z,9.08
2023-11-21T09:55:39.927Z,8.62
2023-11-21T09:58:13.465Z,9.46
2023-11-21T10:00:45.483Z,9.66
2023-11-21T10:03:13.107Z,9.80
2023-11-21T10:05:41.692Z,9.19
2023-11-21T10:08:12.728Z,9.23
2023-11-21T10:10:46.852Z,9.39
2023-11-21T10:13:18.344Z,8.69
2023-11-21T10:15:50.126Z,9.37
2023-11-21T10:18:17.832Z,8.99
2023-11-21T10:20:47.668Z,8.95
2023-11-21T10:23:16.051Z,8.88
2023-11-21T10:25:43.013Z,9.22
2023-11-21T10:28:11.676Z,9.00
2023-11-21T10:30:39.725Z,9.59
2023-11-21T10:33:09.323Z,9.13
2023-11-21T10:35:43.041Z,9.40
2023-11-21T10:38:15.076Z,9.60
2023-11-21T10:40:43.402Z,9.57
2023-11-21T10:43:11.487Z,9.79
2023-11-21T10:45:39.056Z,9.69
2023-11-21T10:48:12.074Z,9.98
2023-11-21T10:50:39.362Z,9.72
2023-11-21T10:53:07.054Z,9.85
2023-11-21T10:55:34.893Z,10.03
2023-11-21T10:58:06.664Z,10.12
2023-11-21T11:00:34.760Z,10.57
2023-11-21T11:03:02.589Z,10.54
2023-11-21T11:05:33.437Z,10.04
2023-11-21T11:08:05.358Z,10.87
2023-11-21T11:10:32.902Z,9.97
2023-11-21T11:13:01.093Z,10.45
2023-11-21T11:15:29.228Z,11.38
2023-11-21T11:18:00.355Z,11.66
2023-11-21T11:20:32.654Z,11.96
2023-11-21T11:23:18.415Z,12.06
2023-11-21T11:26:05.894Z,11.94
2023-11-21T11:28:45.945Z,12.16
2023-11-21T11:31:40.348Z,12.00
2023-11-21T11:34:20.146Z,11.27
2023-11-21T11:37:02.051Z,11.86
2023-11-21T11:39:33.403Z,12.28
2023-11-21T11:42:05.591Z,12.39
2023-11-21T11:44:48.214Z,11.80
2023-11-21T11:47:22.145Z,11.85
2023-11-21T11:50:23.106Z,12.35
2023-11-21T11:52:56.317Z,12.26
2023-11-21T11:55:25.190Z,12.98
2023-11-21T11:57:56.854Z,13.09
2023-11-21T12:00:36.118Z,12.75
2023-11-21T12:03:05.103Z,13.21
2023-11-21T12:05:40.094Z,13.04
2023-11-21T12:08:08.579Z,12.71
2023-11-21T12:10:38.142Z,13.06
2023-11-21T12:13:11.899Z,12.87
2023-11-21T12:15:40.678Z,12.84
2023-11-21T12:18:07.907Z,12.68
2023-11-21T12:20:40.507Z,12.72
2023-11-21T12:23:10.520Z,12.67
2023-11-21T12:25:38.365Z,12.90
2023-11-21T12:28:05.692Z,12.93
2023-11-21T12:30:36.973Z,13.04
2023-11-21T12:33:05.136Z,12.77
2023-11-21T12:35:36.650Z,12.59
2023-11-21T12:38:05.021Z,12.82
2023-11-21T12:40:32.443Z,12.63
2023-11-21T12:43:02.710Z,12.79
2023-11-21T12:45:30.631Z,12.78
2023-11-21T12:48:00.880Z,12.45
2023-11-21T12:50:30.072Z,12.67
2023-11-21T12:53:06.129Z,12.80
2023-11-21T12:55:34.566Z,13.16
2023-11-21T12:58:11.648Z,13.23
2023-11-21T13:00:47.074Z,13.34
2023-11-21T13:03:27.259Z,13.66
2023-11-21T13:05:56.217Z,13.93
2023-11-21T13:08:25.245Z,14.04
2023-11-21T13:10:58.926Z,13.97
2023-11-21T13:13:29.726Z,14.09
2023-11-21T13:16:07.421Z,14.08
2023-11-21T13:18:34.639Z,14.10
2023-11-21T13:21:15.327Z,14.23
2023-11-21T13:23:43.688Z,14.36
2023-11-21T13:26:11.232Z,14.35
2023-11-21T13:28:39.294Z,14.37
2023-11-21T13:31:24.237Z,14.36
2023-11-21T13:33:57.371Z,14.12
2023-11-21T13:36:25.591Z,14.20
2023-11-21T13:38:56.087Z,14.30
2023-11-21T13:41:29.730Z,14.34
2023-11-21T13:44:05.016Z,14.47
2023-11-21T13:46:38.952Z,14.60
2023-11-21T13:49:11.092Z,14.29
2023-11-21T13:51:49.609Z,14.34
2023-11-21T13:54:16.444Z,14.33
2023-11-21T13:56:46.276Z,14.35
2023-11-21T13:59:26.910Z,14.28
2023-11-21T14:02:17.884Z,14.61
2023-11-21T14:04:55.717Z,14.56
2023-11-21T14:07:37.170Z,14.13
2023-11-21T14:10:06.377Z,14.33
2023-11-21T14:12:38.292Z,14.33
2023-11-21T14:15:11.274Z,14.48
2023-11-21T14:17:40.928Z,14.46
2023-11-21T14:20:17.035Z,14.48
2023-11-21T14:22:44.475Z,14.35
2023-11-21T14:25:13.287Z,14.30
2023-11-21T14:27:41.024Z,14.27
2023-11-21T14:30:08.394Z,14.34
2023-11-21T14:32:36.000Z,14.37
2023-11-21T14:35:05.019Z,14.21
2023-11-21T14:37:31.997Z,14.19
2023-11-21T14:39:58.742Z,14.40
2023-11-21T14:42:28.179Z,14.27
2023-11-21T14:44:58.566Z,14.38
2023-11-21T14:47:28.571Z,14.30
2023-11-21T14:49:58.195Z,14.57
2023-11-21T14:52:34.488Z,14.47
2023-11-21T14:55:20.858Z,14.37
2023-11-21T14:57:54.614Z,14.43
2023-11-21T15:00:37.175Z,14.33
2023-11-21T15:03:05.366Z,14.22
2023-11-21T15:05:32.580Z,14.30
2023-11-21T15:08:13.191Z,14.26
2023-11-21T15:10:47.541Z,14.48
2023-11-21T15:13:16.270Z,14.57
2023-11-21T15:15:43.624Z,14.43
2023-11-21T15:18:13.540Z,14.56
2023-11-21T15:20:44.765Z,14.35
2023-11-21T15:23:13.957Z,14.46
2023-11-21T15:25:41.161Z,14.34
2023-11-21T15:28:08.088Z,14.87
2023-11-21T15:30:35.138Z,14.52
2023-11-21T15:33:04.855Z,14.47
2023-11-21T15:35:34.022Z,14.44
2023-11-21T15:38:01.271Z,14.36
2023-11-21T15:40:28.311Z,14.82
2023-11-21T15:43:24.391Z,14.58
2023-11-21T15:45:51.068Z,14.51
2023-11-21T15:48:18.084Z,14.55
2023-11-21T15:50:45.038Z,14.51
2023-11-21T15:53:11.800Z,14.59
2023-11-21T15:55:43.733Z,14.37
2023-11-21T15:58:10.669Z,14.35
2023-11-21T16:00:38.297Z,14.45
2023-11-21T16:03:05.371Z,14.60
2023-11-21T16:05:32.424Z,14.52
2023-11-21T16:07:59.325Z,14.52
2023-11-21T16:10:26.197Z,14.44
2023-11-21T16:12:52.951Z,14.80
2023-11-21T16:15:19.777Z,14.66
2023-11-21T16:17:47.901Z,14.43
2023-11-21T16:20:16.397Z,14.45
2023-11-21T16:22:43.349Z,14.35
2023-11-21T16:25:13.748Z,14.02
2023-11-21T16:27:41.756Z,13.91
2023-11-21T16:30:12.956Z,13.88
2023-11-21T16:32:40.443Z,13.88
2023-11-21T16:35:07.726Z,13.71
2023-11-21T16:37:34.488Z,13.54
2023-11-21T16:40:01.521Z,14.11
2023-11-21T16:42:32.203Z,14.38
2023-11-21T16:44:59.168Z,14.36
2023-11-21T16:47:29.439Z,14.51
2023-11-21T16:49:57.826Z,14.47
2023-11-21T16:52:25.049Z,14.35
2023-11-21T16:54:52.356Z,14.60
2023-11-21T16:57:19.172Z,14.67
2023-11-21T16:59:51.703Z,14.44
2023-11-21T17:02:22.129Z,14.47
2023-11-21T17:04:51.034Z,14.61
2023-11-21T17:07:22.943Z,14.63
2023-11-21T17:09:50.030Z,14.60
2023-11-21T17:12:17.225Z,14.52
2023-11-21T17:14:49.788Z,14.60
2023-11-21T17:17:16.913Z,14.35
2023-11-21T17:19:45.481Z,14.57
2023-11-21T17:22:12.884Z,14.50
2023-11-21T17:24:39.852Z,14.60
2023-11-21T17:27:07.307Z,14.65
2023-11-21T17:29:34.250Z,14.35
2023-11-21T17:32:01.254Z,14.36
2023-11-21T17:34:28.201Z,14.34
2023-11-21T17:36:57.001Z,14.38
2023-11-21T17:39:24.386Z,14.49
2023-11-21T17:41:51.509Z,14.32
2023-11-21T17:44:18.620Z,14.46
2023-11-21T17:46:45.557Z,14.26
2023-11-21T17:49:12.664Z,14.27
2023-11-21T17:51:40.839Z,14.30
2023-11-21T17:54:09.592Z,14.29
2023-11-21T17:56:39.962Z,14.25
2023-11-21T17:59:06.903Z,14.18
2023-11-21T18:01:38.820Z,14.32
2023-11-21T18:04:07.049Z,14.12
2023-11-21T18:06:34.409Z,14.16
2023-11-21T18:09:04.034Z,14.32
2023-11-21T18:11:31.533Z,14.13
2023-11-21T18:13:59.065Z,14.00
2023-11-21T18:16:26.243Z,14.15
2023-11-21T18:18:53.432Z,14.07
2023-11-21T18:21:20.849Z,14.17
2023-11-21T18:23:47.787Z,14.39
2023-11-21T18:26:19.070Z,14.19
2023-11-21T18:28:46.834Z,14.24
2023-11-21T18:31:16.125Z,13.97
2023-11-21T18:33:43.300Z,14.23
2023-11-21T18:36:10.425Z,14.26
2023-11-21T18:38:39.454Z,14.52
2023-11-21T18:41:07.046Z,14.24
2023-11-21T18:43:33.966Z,14.19
2023-11-21T18:46:03.766Z,13.85
2023-11-21T18:48:30.606Z,14.02
2023-11-21T18:50:57.432Z,14.11
2023-11-21T18:53:24.814Z,14.01
2023-11-21T18:55:51.677Z,14.10
2023-11-21T18:58:18.480Z,14.25
2023-11-21T19:00:45.530Z,14.17
2023-11-21T19:03:12.400Z,14.10
2023-11-21T19:05:39.320Z,14.08
2023-11-21T19:08:07.090Z,14.03
2023-11-21T19:10:34.549Z,14.03
2023-11-21T19:13:04.175Z,14.21
2023-11-21T19:15:32.391Z,14.11
2023-11-21T19:18:01.859Z,14.17
2023-11-21T19:20:28.641Z,14.28
2023-11-21T19:22:57.002Z,14.27
2023-11-21T19:25:24.609Z,14.34
2023-11-21T19:27:52.641Z,14.42
2023-11-21T19:30:19.718Z,14.66
2023-11-21T19:32:46.649Z,14.58
2023-11-21T19:35:13.550Z,14.28
2023-11-21T19:37:40.803Z,14.23
2023-11-21T19:40:08.189Z,14.05
2023-11-21T19:42:37.800Z,14.19
2023-11-21T19:45:05.082Z,14.33
2023-11-21T19:47:34.779Z,14.35
2023-11-21T19:50:01.848Z,14.60
2023-11-21T19:52:30.286Z,14.43
2023-11-21T19:54:57.447Z,14.49
2023-11-21T19:57:24.228Z,14.30
2023-11-21T19:59:51.097Z,14.30
2023-11-21T20:02:18.613Z,14.27
2023-11-21T20:04:46.317Z,14.38
2023-11-21T20:07:16.382Z,14.48
2023-11-21T20:09:43.266Z,14.68
2023-11-21T20:12:10.065Z,14.36
2023-11-21T20:14:37.317Z,14.68
2023-11-21T20:17:05.718Z,14.26
2023-11-21T20:19:32.501Z,14.55
2023-11-21T20:21:59.460Z,14.72
2023-11-21T20:24:26.333Z,14.69
2023-11-21T20:26:54.452Z,14.77
2023-11-21T20:29:21.655Z,14.58
2023-11-21T20:31:48.600Z,14.90
2023-11-21T20:34:15.365Z,14.77
2023-11-21T20:36:43.258Z,14.62
2023-11-21T20:39:12.446Z,14.65
2023-11-21T20:41:42.436Z,14.44
2023-11-21T20:44:09.512Z,14.56
2023-11-21T20:46:47.024Z,14.73
2023-11-21T20:49:15.095Z,14.76
2023-11-21T20:51:42.821Z,14.75
2023-11-21T20:54:10.549Z,14.67
2023-11-21T20:56:37.837Z,14.60
2023-11-21T20:59:08.719Z,14.29
2023-11-21T21:01:36.138Z,14.58
2023-11-21T21:04:03.641Z,14.88
2023-11-21T21:06:31.724Z,15.03
2023-11-21T21:08:59.656Z,14.87
2023-11-21T21:11:27.037Z,14.56
2023-11-21T21:13:56.909Z,14.78
2023-11-21T21:16:26.920Z,14.49
2023-11-21T21:18:55.338Z,14.38
2023-11-21T21:21:23.452Z,14.51
2023-11-21T21:23:51.412Z,14.53
2023-11-21T21:26:20.940Z,14.66
2023-11-21T21:28:48.739Z,14.37
2023-11-21T21:31:16.293Z,14.36
2023-11-21T21:33:46.906Z,14.77
2023-11-21T21:36:14.746Z,14.74
2023-11-21T21:38:44.058Z,14.46
2023-11-21T21:41:14.678Z,14.17
2023-11-21T21:43:41.471Z,14.25
2023-11-21T21:46:10.978Z,14.66
2023-11-21T21:48:38.024Z,14.63
2023-11-21T21:51:04.919Z,14.45
2023-11-21T21:53:31.843Z,14.52
2023-11-21T21:55:58.849Z,14.56
2023-11-21T21:58:26.910Z,14.53
2023-11-21T22:00:53.789Z,14.34
2023-11-21T22:03:20.746Z,14.49
2023-11-21T22:05:47.580Z,14.58
2023-11-21T22:08:14.903Z,14.69
2023-11-21T22:10:41.934Z,14.75
2023-11-21T22:13:09.513Z,14.82
2023-11-21T22:15:36.805Z,14.96
2023-11-21T22:18:03.814Z,14.59
2023-11-21T22:20:30.669Z,14.76
2023-11-21T22:22:57.644Z,14.56
2023-11-21T22:25:24.603Z,14.77
2023-11-21T22:27:52.226Z,14.55
2023-11-21T22:30:21.046Z,14.64
2023-11-21T22:32:48.176Z,14.85
2023-11-21T22:35:15.087Z,15.25
2023-11-21T22:37:42.058Z,14.95
2023-11-21T22:40:09.819Z,15.04
2023-11-21T22:42:39.673Z,14.94
2023-11-21T22:45:08.386Z,14.52
2023-11-21T22:47:36.658Z,14.63
2023-11-21T22:50:04.227Z,14.75
2023-11-21T22:52:32.186Z,14.84
2023-11-21T22:54:59.047Z,14.75
2023-11-21T22:57:25.887Z,14.87
2023-11-21T22:59:52.751Z,14.80
2023-11-21T23:02:20.243Z,14.79
2023-11-21T23:04:47.152Z,14.71
2023-11-21T23:07:14.134Z,14.96
2023-11-21T23:09:41.161Z,14.92
2023-11-21T23:12:08.345Z,14.83
2023-11-21T23:14:35.238Z,14.88
2023-11-21T23:17:02.156Z,15.15
2023-11-21T23:19:28.979Z,14.98
2023-11-21T23:21:56.081Z,14.94
2023-11-21T23:24:24.009Z,14.59
2023-11-21T23:26:51.778Z,14.54
2023-11-21T23:29:19.170Z,15.17
2023-11-21T23:31:46.015Z,14.99
2023-11-21T23:34:13.043Z,15.15
2023-11-21T23:36:40.351Z,14.82
2023-11-21T23:39:08.427Z,14.70
2023-11-21T23:41:35.906Z,15.21
2023-11-21T23:44:22.612Z,15.00
2023-11-21T23:46:49.388Z,14.83
2023-11-21T23:49:16.567Z,15.03
2023-11-21T23:51:43.781Z,14.97
2023-11-21T23:54:11.675Z,14.73
2023-11-21T23:56:38.428Z,15.24
2023-11-21T23:59:05.477Z,15.09
